Terminal Aerodrome Forecast
Issued by NWS

Home | Current Version | Previous Version | Text Only | Print | Product List | Glossary On
Versions: 1 2 3 4 5 6 7 8 9 10 11 12 13 14 15 16 17
000
FTUS41 KCAR 111100 RRA
TAFBHB
TAF
KBHB 111157Z 1112/1212 35004KT P6SM BKN250
     FM111800 23007KT P6SM FEW250
     FM120600 00000KT 1SM BR SKC
     FM120900 00000KT 1/2SM FG SCT001
      AMD LTD TO CLD VIS AND WIND=

USA.gov is the U.S. government's official web portal to all federal, state and local government web resources and services.